Time;durP1;ratioP1;P1;durP2;ratioP2;P2;SDS_P1;SDS_P2;PMS_P1;PMS_P2;Temp;Humidity;BMP_temperature;BMP_pressure;BME280_temperature;BME280_humidity;BME280_pressure;Samples;Min_cycle;Max_cycle;Signal;HPM_P1;HPM_P2
2023/06/20 00:00:39;;;;;;;;;;;;;;;28.08;98.06;98623.88;5019740;28;20011;-45
2023/06/20 00:03:04;;;;;;;;;;;;;;;28.29;97.27;98613.53;5018614;28;20075;-45
2023/06/20 00:05:29;;;;;;;;;;;;;;;30.11;91.46;98561.56;5018146;28;19964;-44
2023/06/20 00:07:55;;;;;;;;;;;;;;;30.34;87.76;98550.81;5017656;28;20388;-45
2023/06/20 00:10:20;;;;;;;;;;;;;;;30.83;84.34;98528.81;5018575;28;20395;-46
2023/06/20 00:12:45;;;;;;;;;;;;;;;30.23;85.20;98548.63;5017667;28;20004;-45
2023/06/20 00:15:11;;;;;;;;;;;;;;;30.09;86.06;98550.28;5017232;28;19921;-45
2023/06/20 00:17:38;;;;;;;;;;;;;;;30.22;86.30;98554.94;5018787;28;19921;-46
2023/06/20 00:20:05;;;;;;;;;;;;;;;30.70;83.68;98541.16;5018052;28;20325;-46
2023/06/20 00:22:34;;;;;;;;;;;;;;;29.71;86.84;98571.63;5017974;28;19924;-46
2023/06/20 00:25:03;;;;;;;;;;;;;;;29.65;88.85;98568.84;5018234;28;19921;-44
2023/06/20 00:27:28;;;;;;;;;;;;;;;29.39;88.77;98578.88;5017956;28;19925;-44
2023/06/20 00:29:54;;;;;;;;;;;;;;;29.42;90.44;98572.38;5018825;28;19932;-46
2023/06/20 00:32:19;;;;;;;;;;;;;;;29.60;89.62;98559.63;5020219;28;19917;-46
2023/06/20 00:34:44;;;;;;;;;;;;;;;29.39;90.52;98570.09;5022250;28;19959;-44
2023/06/20 00:37:09;;;;;;;;;;;;;;;29.08;91.82;98576.38;5023234;28;19975;-44
2023/06/20 00:39:35;;;;;;;;;;;;;;;29.21;90.45;98565.13;5021084;28;19921;-45
2023/06/20 00:42:00;;;;;;;;;;;;;;;30.41;87.91;98529.66;5022882;28;20370;-45
2023/06/20 00:44:26;;;;;;;;;;;;;;;31.12;84.57;98524.41;5022753;28;20007;-45
2023/06/20 00:46:51;;;;;;;;;;;;;;;31.12;84.20;98527.06;5023476;28;19983;-45
2023/06/20 00:49:16;;;;;;;;;;;;;;;29.99;85.04;98545.28;5020118;28;19936;-45
2023/06/20 00:51:41;;;;;;;;;;;;;;;29.70;88.04;98561.22;5020676;28;19916;-45
2023/06/20 00:54:06;;;;;;;;;;;;;;;31.04;84.46;98514.72;5020288;28;19921;-45
2023/06/20 00:56:32;;;;;;;;;;;;;;;29.97;89.05;98554.41;5021499;28;19930;-45
2023/06/20 00:58:57;;;;;;;;;;;;;;;30.64;87.32;98537.44;5021901;28;19921;-45
2023/06/20 01:01:22;;;;;;;;;;;;;;;29.63;87.35;98557.59;5020757;28;19921;-47
2023/06/20 01:03:50;;;;;;;;;;;;;;;29.38;92.17;98576.44;5016090;28;19928;-45
2023/06/20 01:06:24;;;;;;;;;;;;;;;29.92;89.25;98544.34;5022224;28;19932;-46
2023/06/20 01:09:05;;;;;;;;;;;;;;;29.76;90.25;98552.50;5022604;28;19921;-47
2023/06/20 01:11:33;;;;;;;;;;;;;;;29.37;91.72;98566.81;5018952;28;19921;-46
2023/06/20 01:14:11;;;;;;;;;;;;;;;30.34;90.37;98544.69;5019975;28;20381;-46
2023/06/20 01:16:45;;;;;;;;;;;;;;;30.10;88.85;98543.16;5021558;28;19957;-45
2023/06/20 01:19:10;;;;;;;;;;;;;;;31.12;84.60;98520.91;5020813;28;19926;-45
2023/06/20 01:21:36;;;;;;;;;;;;;;;29.60;89.36;98566.75;5022317;28;19974;-45
2023/06/20 01:24:01;;;;;;;;;;;;;;;29.65;91.30;98561.75;5018291;28;20578;-45
2023/06/20 01:26:31;;;;;;;;;;;;;;;29.77;90.68;98548.88;5020339;28;20011;-48
2023/06/20 01:28:59;;;;;;;;;;;;;;;29.52;91.92;98557.06;5020463;28;19943;-46
2023/06/20 01:31:24;;;;;;;;;;;;;;;29.87;92.81;98549.41;5018762;28;19917;-45
2023/06/20 01:33:53;;;;;;;;;;;;;;;29.55;93.12;98561.97;5021025;28;20001;-47
2023/06/20 01:36:19;;;;;;;;;;;;;;;30.12;90.97;98535.81;5020570;28;19925;-45
2023/06/20 01:38:45;;;;;;;;;;;;;;;31.10;87.38;98513.13;5020526;28;19920;-46
2023/06/20 01:41:10;;;;;;;;;;;;;;;31.79;83.67;98500.88;5020709;28;19943;-45
2023/06/20 01:43:35;;;;;;;;;;;;;;;30.59;87.84;98531.88;5035245;28;20317;-45
2023/06/20 01:46:00;;;;;;;;;;;;;;;31.25;86.64;98516.53;5018954;28;20250;-45
2023/06/20 01:48:26;;;;;;;;;;;;;;;31.55;85.86;98504.88;5018279;28;19959;-45
2023/06/20 01:50:52;;;;;;;;;;;;;;;31.35;84.44;98502.06;5020637;28;19916;-46
2023/06/20 01:53:17;;;;;;;;;;;;;;;30.26;86.68;98532.31;5019346;28;19924;-46
2023/06/20 01:55:42;;;;;;;;;;;;;;;29.95;89.49;98541.34;5020615;28;19921;-45
2023/06/20 01:58:08;;;;;;;;;;;;;;;31.03;87.98;98520.25;5019012;28;20012;-45
2023/06/20 02:00:34;;;;;;;;;;;;;;;32.04;83.37;98488.72;5020863;28;20813;-46
2023/06/20 02:02:59;;;;;;;;;;;;;;;32.19;82.06;98488.56;5018906;28;19928;-45
2023/06/20 02:05:25;;;;;;;;;;;;;;;32.20;82.35;98492.03;5019512;28;19921;-45
2023/06/20 02:07:51;;;;;;;;;;;;;;;31.63;84.63;98507.34;5019129;28;20329;-45
2023/06/20 02:10:17;;;;;;;;;;;;;;;31.90;83.77;98502.97;5020400;28;20177;-46
2023/06/20 02:12:42;;;;;;;;;;;;;;;31.19;84.29;98509.31;5019552;28;20181;-45
2023/06/20 02:15:07;;;;;;;;;;;;;;;31.07;84.34;98505.53;5019618;28;19975;-45
2023/06/20 02:17:33;;;;;;;;;;;;;;;31.39;83.51;98495.31;5020138;28;19924;-45
2023/06/20 02:19:58;;;;;;;;;;;;;;;32.19;82.22;98495.75;5020654;28;20543;-45
2023/06/20 02:22:23;;;;;;;;;;;;;;;32.31;79.20;98472.81;5020362;28;19963;-45
2023/06/20 02:24:49;;;;;;;;;;;;;;;32.60;78.30;98466.31;5018881;28;19952;-45
2023/06/20 02:27:15;;;;;;;;;;;;;;;31.83;81.60;98491.47;5019030;28;20353;-45
2023/06/20 02:29:40;;;;;;;;;;;;;;;30.99;85.39;98517.13;5021650;28;20309;-45
2023/06/20 02:32:05;;;;;;;;;;;;;;;31.29;85.08;98505.47;5021595;28;19932;-48
2023/06/20 02:34:31;;;;;;;;;;;;;;;30.18;88.88;98527.94;5016508;28;19929;-45
2023/06/20 02:36:57;;;;;;;;;;;;;;;29.57;91.01;98545.88;5019445;28;20012;-45
2023/06/20 02:39:23;;;;;;;;;;;;;;;30.80;90.41;98531.06;5017259;28;19925;-46
2023/06/20 02:41:48;;;;;;;;;;;;;;;30.75;89.54;98525.50;5018682;28;19927;-46
2023/06/20 02:44:14;;;;;;;;;;;;;;;31.03;85.81;98502.44;5018535;28;19917;-45
2023/06/20 02:46:59;;;;;;;;;;;;;;;29.79;89.19;98536.22;5020976;28;20255;-48
2023/06/20 02:49:27;;;;;;;;;;;;;;;31.02;88.40;98519.41;5016152;28;20530;-45
2023/06/20 02:51:59;;;;;;;;;;;;;;;31.57;88.00;98516.97;5019733;28;20557;-45
2023/06/20 02:54:27;;;;;;;;;;;;;;;31.73;86.88;98515.00;5017556;28;20330;-45
2023/06/20 02:56:53;;;;;;;;;;;;;;;31.36;86.65;98514.31;5021662;28;19924;-47
2023/06/20 02:59:19;;;;;;;;;;;;;;;31.54;86.87;98524.50;5019899;28;19917;-46
2023/06/20 03:01:46;;;;;;;;;;;;;;;31.34;86.70;98519.88;5018652;28;19952;-47
2023/06/20 03:04:12;;;;;;;;;;;;;;;31.44;87.06;98524.88;5018600;28;19916;-45
2023/06/20 03:06:38;;;;;;;;;;;;;;;31.00;89.79;98533.94;5020217;28;19975;-44
2023/06/20 03:09:03;;;;;;;;;;;;;;;31.39;85.97;98521.94;5017400;28;19929;-45
2023/06/20 03:11:28;;;;;;;;;;;;;;;31.52;87.70;98543.34;5019140;28;19970;-45
2023/06/20 03:13:54;;;;;;;;;;;;;;;31.90;85.79;98524.28;5018982;28;19992;-44
2023/06/20 03:16:19;;;;;;;;;;;;;;;31.73;87.46;98542.44;5017731;28;19986;-46
2023/06/20 03:18:47;;;;;;;;;;;;;;;31.79;90.70;98554.94;5019247;28;20281;-45
2023/06/20 03:21:12;;;;;;;;;;;;;;;31.91;89.35;98536.59;5019494;28;20380;-47
2023/06/20 03:23:38;;;;;;;;;;;;;;;31.40;91.24;98550.19;5018709;28;19972;-46
2023/06/20 03:26:04;;;;;;;;;;;;;;;31.62;89.06;98535.81;5017685;28;19987;-44
2023/06/20 03:28:29;;;;;;;;;;;;;;;30.94;91.58;98566.59;5018231;28;19967;-45
2023/06/20 03:30:55;;;;;;;;;;;;;;;29.27;98.92;98606.84;5019382;28;19923;-45
2023/06/20 03:33:20;;;;;;;;;;;;;;;30.06;99.90;98584.34;5018841;28;19956;-45
2023/06/20 03:35:45;;;;;;;;;;;;;;;29.36;98.32;98591.69;5018125;28;19953;-45
2023/06/20 03:38:12;;;;;;;;;;;;;;;29.26;100.00;98604.38;5019136;28;19960;-44
2023/06/20 03:40:37;;;;;;;;;;;;;;;29.17;100.00;98616.88;5019916;28;19932;-46
2023/06/20 03:43:02;;;;;;;;;;;;;;;30.29;98.10;98565.66;5019328;28;19921;-45
2023/06/20 03:45:27;;;;;;;;;;;;;;;30.55;95.75;98567.81;5019943;28;19921;-44
2023/06/20 03:47:52;;;;;;;;;;;;;;;29.16;100.00;98621.34;5017559;28;19921;-44
2023/06/20 03:50:18;;;;;;;;;;;;;;;29.81;100.00;98587.31;5016116;28;19932;-44
2023/06/20 03:52:43;;;;;;;;;;;;;;;29.64;100.00;98599.06;5019250;28;19925;-44
2023/06/20 03:55:08;;;;;;;;;;;;;;;30.20;100.00;98602.13;5019037;28;19960;-44
2023/06/20 03:57:33;;;;;;;;;;;;;;;30.81;98.81;98569.91;5020142;28;19924;-43
2023/06/20 03:59:59;;;;;;;;;;;;;;;31.00;98.91;98582.63;5017749;28;19932;-44
2023/06/20 04:02:24;;;;;;;;;;;;;;;30.94;98.59;98574.56;5019557;28;19995;-44
2023/06/20 04:04:50;;;;;;;;;;;;;;;31.27;98.27;98578.34;5017747;28;19970;-43
2023/06/20 04:07:18;;;;;;;;;;;;;;;30.71;100.00;98610.09;5020672;28;19952;-44
2023/06/20 04:09:43;;;;;;;;;;;;;;;30.96;100.00;98596.47;5021068;28;19925;-43
2023/06/20 04:12:09;;;;;;;;;;;;;;;30.87;100.00;98601.09;5023051;28;19927;-44
2023/06/20 04:14:34;;;;;;;;;;;;;;;30.94;100.00;98599.31;5021810;28;19921;-43
2023/06/20 04:16:59;;;;;;;;;;;;;;;31.21;100.00;98586.28;5024462;28;20423;-43
2023/06/20 04:19:24;;;;;;;;;;;;;;;30.97;100.00;98588.28;5021434;28;19956;-44
2023/06/20 04:21:49;;;;;;;;;;;;;;;30.29;100.00;98630.28;5023237;28;20004;-44
2023/06/20 04:24:15;;;;;;;;;;;;;;;29.57;100.00;98636.94;5022719;28;19952;-44
2023/06/20 04:26:40;;;;;;;;;;;;;;;29.88;100.00;98624.53;5023200;28;19971;-44
2023/06/20 04:29:05;;;;;;;;;;;;;;;29.47;100.00;98633.72;5022794;28;19968;-43
2023/06/20 04:31:31;;;;;;;;;;;;;;;30.20;100.00;98596.81;5022154;28;20410;-43
2023/06/20 04:33:57;;;;;;;;;;;;;;;30.51;100.00;98593.13;5023579;28;19913;-44
2023/06/20 04:36:22;;;;;;;;;;;;;;;30.92;100.00;98576.59;5021221;28;19943;-43
2023/06/20 04:38:47;;;;;;;;;;;;;;;31.04;100.00;98572.41;5023222;28;19921;-43
2023/06/20 04:41:12;;;;;;;;;;;;;;;31.25;100.00;98567.06;5021881;28;19925;-44
2023/06/20 04:43:38;;;;;;;;;;;;;;;30.47;100.00;98560.75;5022332;28;19971;-43
2023/06/20 04:46:03;;;;;;;;;;;;;;;29.11;100.00;98591.09;5023523;28;19921;-44
2023/06/20 04:48:29;;;;;;;;;;;;;;;29.49;100.00;98589.25;5021457;28;20847;-44
2023/06/20 04:50:57;;;;;;;;;;;;;;;28.03;100.00;98623.53;5021633;28;19921;-43
2023/06/20 04:53:23;;;;;;;;;;;;;;;28.47;100.00;98604.56;5021772;28;19921;-43
2023/06/20 04:55:48;;;;;;;;;;;;;;;28.66;100.00;98609.41;5023174;28;20389;-44
2023/06/20 04:58:14;;;;;;;;;;;;;;;28.66;100.00;98593.50;5019689;28;19924;-43
2023/06/20 05:00:39;;;;;;;;;;;;;;;29.02;100.00;98584.97;5021629;28;20802;-44
2023/06/20 05:03:04;;;;;;;;;;;;;;;29.56;100.00;98592.84;5020123;28;19917;-43
2023/06/20 05:05:30;;;;;;;;;;;;;;;30.24;100.00;98568.84;5021761;28;19922;-43
2023/06/20 05:07:56;;;;;;;;;;;;;;;29.50;100.00;98585.59;5019164;28;19921;-43
2023/06/20 05:10:21;;;;;;;;;;;;;;;30.25;100.00;98567.03;5018201;28;19925;-44
2023/06/20 05:12:47;;;;;;;;;;;;;;;29.82;100.00;98573.03;5020822;28;19921;-44
2023/06/20 05:15:12;;;;;;;;;;;;;;;30.67;100.00;98555.66;5021667;28;20317;-44
2023/06/20 05:17:37;;;;;;;;;;;;;;;30.33;100.00;98567.75;5022227;28;20341;-45
2023/06/20 05:20:05;;;;;;;;;;;;;;;30.17;100.00;98559.97;5020161;28;19925;-44
2023/06/20 05:22:31;;;;;;;;;;;;;;;28.22;100.00;98615.22;5019099;28;20019;-44
2023/06/20 05:24:56;;;;;;;;;;;;;;;28.77;100.00;98590.44;5019595;28;20389;-44
2023/06/20 05:27:21;;;;;;;;;;;;;;;28.52;100.00;98591.59;5022296;28;19917;-44
2023/06/20 05:29:46;;;;;;;;;;;;;;;29.68;100.00;98574.66;5021935;28;19994;-44
2023/06/20 05:32:12;;;;;;;;;;;;;;;28.95;100.00;98594.66;5021887;28;20031;-44
2023/06/20 05:34:38;;;;;;;;;;;;;;;28.89;100.00;98593.50;5016441;28;20016;-44
2023/06/20 05:37:03;;;;;;;;;;;;;;;28.95;100.00;98597.31;5020611;28;20342;-44
2023/06/20 05:39:28;;;;;;;;;;;;;;;30.21;100.00;98546.16;5019186;28;19924;-44
2023/06/20 05:41:56;;;;;;;;;;;;;;;29.38;100.00;98598.47;5022197;28;19967;-44
2023/06/20 05:44:21;;;;;;;;;;;;;;;29.41;100.00;98591.97;5021149;28;19921;-44
2023/06/20 05:46:46;;;;;;;;;;;;;;;30.95;100.00;98554.94;5021397;28;19921;-44
2023/06/20 05:49:14;;;;;;;;;;;;;;;30.14;100.00;98581.59;5019783;28;19941;-44
2023/06/20 05:51:40;;;;;;;;;;;;;;;30.52;99.58;98545.09;5021123;28;19928;-45
2023/06/20 05:54:07;;;;;;;;;;;;;;;31.42;99.81;98553.50;5018968;28;19917;-45
2023/06/20 05:56:32;;;;;;;;;;;;;;;30.98;96.52;98552.72;5022065;28;20016;-44
2023/06/20 05:58:57;;;;;;;;;;;;;;;31.14;96.54;98551.63;5021144;28;20004;-44
2023/06/20 06:01:22;;;;;;;;;;;;;;;31.42;98.96;98566.81;5022039;28;19983;-44
2023/06/20 06:03:47;;;;;;;;;;;;;;;31.44;95.22;98546.97;5019257;28;19916;-44
2023/06/20 06:06:13;;;;;;;;;;;;;;;30.61;100.00;98583.03;5020730;28;19936;-44
2023/06/20 06:08:40;;;;;;;;;;;;;;;31.17;98.99;98572.53;5020297;28;19944;-44
2023/06/20 06:11:07;;;;;;;;;;;;;;;31.49;98.06;98575.66;5022026;28;20064;-44
2023/06/20 06:13:32;;;;;;;;;;;;;;;30.76;100.00;98606.88;5020392;28;19917;-44
2023/06/20 06:15:57;;;;;;;;;;;;;;;30.86;100.00;98615.41;5019635;28;19943;-43
2023/06/20 06:18:23;;;;;;;;;;;;;;;30.91;100.00;98612.19;5020526;28;19925;-43
2023/06/20 06:20:48;;;;;;;;;;;;;;;31.12;100.00;98611.34;5021242;28;19913;-43
2023/06/20 06:23:13;;;;;;;;;;;;;;;31.20;100.00;98608.56;5020049;28;19940;-43
2023/06/20 06:25:38;;;;;;;;;;;;;;;30.96;100.00;98633.72;5020849;28;19921;-44
2023/06/20 06:28:04;;;;;;;;;;;;;;;30.12;100.00;98653.50;5021533;28;19917;-43
2023/06/20 06:30:29;;;;;;;;;;;;;;;29.96;100.00;98654.50;5020092;28;19986;-43
2023/06/20 06:32:54;;;;;;;;;;;;;;;30.46;100.00;98638.03;5018737;28;20028;-43
2023/06/20 06:35:19;;;;;;;;;;;;;;;30.89;100.00;98638.16;5017660;28;20016;-43
2023/06/20 06:37:44;;;;;;;;;;;;;;;31.23;100.00;98605.53;5018297;28;20008;-44
2023/06/20 06:40:10;;;;;;;;;;;;;;;31.33;100.00;98618.50;5019888;28;20000;-43
2023/06/20 06:42:35;;;;;;;;;;;;;;;31.37;100.00;98619.75;5020901;28;19927;-43
2023/06/20 06:45:01;;;;;;;;;;;;;;;31.42;100.00;98606.72;5019261;28;19975;-44
2023/06/20 06:47:26;;;;;;;;;;;;;;;30.90;100.00;98629.13;5018956;28;19929;-44
2023/06/20 06:49:51;;;;;;;;;;;;;;;31.23;100.00;98602.88;5019405;28;20392;-43
2023/06/20 06:52:16;;;;;;;;;;;;;;;31.32;100.00;98611.53;5020768;28;20358;-43
2023/06/20 06:54:41;;;;;;;;;;;;;;;30.57;100.00;98646.34;5018058;28;20709;-43
2023/06/20 06:57:07;;;;;;;;;;;;;;;30.69;100.00;98609.47;5018631;28;20009;-43
2023/06/20 06:59:32;;;;;;;;;;;;;;;29.93;100.00;98649.56;5019981;28;20361;-43
2023/06/20 07:01:58;;;;;;;;;;;;;;;31.25;100.00;98601.66;5019237;28;19927;-43
2023/06/20 07:04:23;;;;;;;;;;;;;;;31.57;100.00;98607.47;5019338;28;19921;-43
2023/06/20 07:06:48;;;;;;;;;;;;;;;31.37;100.00;98625.09;5019555;28;19924;-43
2023/06/20 07:09:14;;;;;;;;;;;;;;;31.67;100.00;98599.13;5019299;28;20023;-43
2023/06/20 07:11:39;;;;;;;;;;;;;;;31.24;100.00;98631.09;5020775;28;19921;-43
2023/06/20 07:14:04;;;;;;;;;;;;;;;31.43;100.00;98603.88;5020263;28;20000;-43
2023/06/20 07:16:31;;;;;;;;;;;;;;;31.78;100.00;98589.78;5019031;28;19925;-43
2023/06/20 07:18:57;;;;;;;;;;;;;;;29.68;100.00;98651.63;5019798;28;19921;-43
2023/06/20 07:21:22;;;;;;;;;;;;;;;30.46;100.00;98643.34;5018825;28;20300;-43
2023/06/20 07:23:47;;;;;;;;;;;;;;;29.53;100.00;98651.56;5019221;28;20621;-43
2023/06/20 07:26:13;;;;;;;;;;;;;;;28.97;100.00;98646.50;5018732;28;19925;-43
2023/06/20 07:28:39;;;;;;;;;;;;;;;29.90;100.00;98620.72;5018584;28;19921;-43
2023/06/20 07:31:04;;;;;;;;;;;;;;;30.15;100.00;98625.75;5017237;28;20408;-43
2023/06/20 07:33:30;;;;;;;;;;;;;;;30.75;100.00;98598.09;5017743;28;19928;-43
2023/06/20 07:35:55;;;;;;;;;;;;;;;31.06;100.00;98602.28;5019802;28;19920;-43
2023/06/20 07:38:20;;;;;;;;;;;;;;;30.80;100.00;98608.16;5016895;28;19936;-43
2023/06/20 07:40:46;;;;;;;;;;;;;;;32.06;100.00;98571.09;5020229;28;20028;-42
2023/06/20 07:43:11;;;;;;;;;;;;;;;31.34;100.00;98589.03;5019312;28;20020;-43
2023/06/20 07:45:36;;;;;;;;;;;;;;;28.90;100.00;98626.16;5023704;28;19956;-43
2023/06/20 07:48:02;;;;;;;;;;;;;;;29.83;100.00;98595.88;5021824;28;20013;-43
2023/06/20 07:50:28;;;;;;;;;;;;;;;30.78;100.00;98587.06;5019484;28;19926;-43
2023/06/20 07:52:53;;;;;;;;;;;;;;;29.75;100.00;98607.44;5022310;28;20454;-42
2023/06/20 07:55:18;;;;;;;;;;;;;;;31.52;100.00;98561.97;5018292;28;19966;-43
2023/06/20 07:57:43;;;;;;;;;;;;;;;30.83;100.00;98559.91;5022177;28;19972;-43
2023/06/20 08:00:09;;;;;;;;;;;;;;;30.49;100.00;98593.28;5020830;28;19916;-42
2023/06/20 08:02:34;;;;;;;;;;;;;;;30.74;100.00;98559.22;5022080;28;19920;-43
2023/06/20 08:05:00;;;;;;;;;;;;;;;29.44;100.00;98596.09;5021502;28;19963;-42
2023/06/20 08:07:25;;;;;;;;;;;;;;;31.35;100.00;98558.75;5023398;28;19925;-43
2023/06/20 08:09:50;;;;;;;;;;;;;;;32.22;100.00;98532.63;5023464;28;19925;-43
2023/06/20 08:12:15;;;;;;;;;;;;;;;32.44;100.00;98558.13;5023024;28;19963;-44
2023/06/20 08:14:41;;;;;;;;;;;;;;;33.75;99.85;98511.38;5019125;28;19928;-43
2023/06/20 08:17:06;;;;;;;;;;;;;;;32.28;100.00;98537.19;5019242;28;19921;-44
2023/06/20 08:19:31;;;;;;;;;;;;;;;33.54;100.00;98531.94;5022947;28;19918;-44
2023/06/20 08:21:56;;;;;;;;;;;;;;;31.89;100.00;98566.09;5023594;28;20379;-44
2023/06/20 08:24:22;;;;;;;;;;;;;;;32.71;100.00;98537.72;5022135;28;19932;-45
2023/06/20 08:26:47;;;;;;;;;;;;;;;33.67;100.00;98509.78;5021429;28;20391;-44
2023/06/20 08:29:12;;;;;;;;;;;;;;;33.12;100.00;98538.59;5019533;28;20369;-44
2023/06/20 08:31:37;;;;;;;;;;;;;;;34.30;98.59;98487.72;5018217;28;19921;-43
2023/06/20 08:34:03;;;;;;;;;;;;;;;33.15;97.46;98514.16;5021195;28;19964;-46
2023/06/20 08:36:28;;;;;;;;;;;;;;;35.08;92.32;98446.41;5020627;28;20099;-45
2023/06/20 08:38:54;;;;;;;;;;;;;;;32.44;100.00;98534.13;5021135;28;19921;-46
2023/06/20 08:41:21;;;;;;;;;;;;;;;33.99;97.55;98488.50;5022811;28;19925;-44
2023/06/20 08:43:46;;;;;;;;;;;;;;;32.23;100.00;98524.44;5021212;28;20329;-44
2023/06/20 08:46:12;;;;;;;;;;;;;;;33.62;100.00;98496.25;5020812;28;19925;-45
2023/06/20 08:48:37;;;;;;;;;;;;;;;32.61;100.00;98510.59;5020918;28;20468;-46
2023/06/20 08:51:02;;;;;;;;;;;;;;;32.44;100.00;98528.00;5022764;28;19921;-45
2023/06/20 08:53:27;;;;;;;;;;;;;;;33.40;100.00;98502.84;5021883;28;19971;-46
2023/06/20 08:55:53;;;;;;;;;;;;;;;34.38;93.40;98494.69;5018446;28;19925;-45
2023/06/20 08:58:18;;;;;;;;;;;;;;;32.72;97.14;98530.53;5020035;28;19940;-46
2023/06/20 09:00:45;;;;;;;;;;;;;;;32.00;99.37;98535.44;5022313;28;19917;-45
2023/06/20 09:03:10;;;;;;;;;;;;;;;34.99;93.31;98478.00;5019164;28;20441;-45
2023/06/20 09:05:39;;;;;;;;;;;;;;;33.74;96.11;98515.09;5022131;28;19921;-45
2023/06/20 09:08:05;;;;;;;;;;;;;;;36.01;92.80;98492.78;5021349;28;20004;-45
2023/06/20 09:10:31;;;;;;;;;;;;;;;36.59;86.53;98468.09;5019820;28;19921;-46
2023/06/20 09:12:56;;;;;;;;;;;;;;;35.33;90.47;98497.25;5020564;28;19917;-46
2023/06/20 09:15:23;;;;;;;;;;;;;;;34.10;97.51;98538.63;5020352;28;20011;-44
2023/06/20 09:17:55;;;;;;;;;;;;;;;36.74;86.21;98470.31;5021172;28;20385;-45
2023/06/20 09:20:20;;;;;;;;;;;;;;;36.99;79.61;98464.72;5018483;28;20007;-45
2023/06/20 09:22:45;;;;;;;;;;;;;;;38.44;72.76;98437.81;5016952;28;20003;-45
2023/06/20 09:25:11;;;;;;;;;;;;;;;36.72;80.39;98490.38;5019749;28;20066;-46
2023/06/20 09:27:37;;;;;;;;;;;;;;;36.00;83.76;98485.78;5022114;28;19924;-45
2023/06/20 09:30:04;;;;;;;;;;;;;;;37.22;80.42;98465.78;5020923;28;20333;-46
2023/06/20 09:32:33;;;;;;;;;;;;;;;38.84;74.52;98439.53;5022149;28;19959;-47
2023/06/20 09:34:58;;;;;;;;;;;;;;;36.22;81.80;98496.84;5019494;28;19928;-45
2023/06/20 09:37:23;;;;;;;;;;;;;;;38.52;76.96;98447.38;5020818;28;20028;-47
2023/06/20 09:39:48;;;;;;;;;;;;;;;38.38;74.54;98448.75;5015006;28;20004;-45
2023/06/20 09:42:14;;;;;;;;;;;;;;;38.96;77.35;98458.34;5014842;28;20012;-44
2023/06/20 09:44:42;;;;;;;;;;;;;;;39.16;75.84;98448.91;5019832;28;20011;-45
2023/06/20 09:47:07;;;;;;;;;;;;;;;37.40;79.39;98484.44;5021023;28;19928;-45
2023/06/20 09:49:35;;;;;;;;;;;;;;;34.66;89.23;98517.56;5021440;28;19925;-47
2023/06/20 09:52:03;;;;;;;;;;;;;;;38.15;73.61;98436.25;5021654;28;20289;-45
2023/06/20 09:54:29;;;;;;;;;;;;;;;39.14;72.26;98438.41;5019729;28;19931;-47
2023/06/20 09:56:57;;;;;;;;;;;;;;;38.58;72.89;98434.84;5018132;28;19925;-47
2023/06/20 09:59:23;;;;;;;;;;;;;;;36.64;77.40;98468.19;5018173;28;19921;-48
2023/06/20 10:01:48;;;;;;;;;;;;;;;35.89;84.02;98494.59;5020386;28;19923;-45
2023/06/20 10:04:13;;;;;;;;;;;;;;;37.71;80.37;98455.56;5018727;28;19940;-46
2023/06/20 10:06:39;;;;;;;;;;;;;;;36.71;83.62;98491.44;5020074;28;20004;-45
2023/06/20 10:09:07;;;;;;;;;;;;;;;38.78;75.26;98442.41;5016702;28;19925;-47
2023/06/20 10:11:35;;;;;;;;;;;;;;;38.01;76.06;98473.38;5018617;28;19921;-45
2023/06/20 10:14:01;;;;;;;;;;;;;;;37.54;81.18;98487.72;5016290;28;19925;-45
2023/06/20 10:16:29;;;;;;;;;;;;;;;39.33;71.67;98434.31;5019353;28;19974;-45
2023/06/20 10:18:54;;;;;;;;;;;;;;;40.93;66.24;98432.16;5019903;28;19964;-45
2023/06/20 10:21:20;;;;;;;;;;;;;;;39.76;67.63;98444.53;5019569;28;20396;-45
2023/06/20 10:23:45;;;;;;;;;;;;;;;41.04;62.14;98427.63;5018988;28;19970;-48
2023/06/20 10:26:12;;;;;;;;;;;;;;;41.40;61.20;98433.22;5019277;28;19928;-45
2023/06/20 10:28:38;;;;;;;;;;;;;;;37.99;69.71;98464.69;5019132;28;20354;-47
2023/06/20 10:31:03;;;;;;;;;;;;;;;40.49;66.51;98447.75;5019815;28;20027;-46
2023/06/20 10:33:29;;;;;;;;;;;;;;;39.43;64.03;98439.06;5019456;28;20008;-46
2023/06/20 10:35:56;;;;;;;;;;;;;;;41.46;57.99;98413.22;5016006;28;19921;-46
2023/06/20 10:38:21;;;;;;;;;;;;;;;41.12;56.54;98431.69;5018798;28;19921;-46
2023/06/20 10:40:46;;;;;;;;;;;;;;;42.31;54.30;98410.22;5016671;28;19920;-47
2023/06/20 10:43:16;;;;;;;;;;;;;;;41.86;54.82;98430.69;5018111;28;20384;-45
2023/06/20 10:45:51;;;;;;;;;;;;;;;39.88;61.04;98459.56;5019546;28;19921;-46
2023/06/20 10:48:16;;;;;;;;;;;;;;;36.70;79.78;98511.25;5018943;28;20366;-46
2023/06/20 10:50:41;;;;;;;;;;;;;;;37.02;78.20;98483.06;5018847;28;19921;-46
2023/06/20 10:53:06;;;;;;;;;;;;;;;39.91;77.88;98477.91;5019000;28;19940;-45
2023/06/20 10:55:36;;;;;;;;;;;;;;;39.93;65.93;98443.41;5018512;28;19920;-45
2023/06/20 10:58:01;;;;;;;;;;;;;;;39.91;65.11;98426.66;5018310;28;19939;-45
2023/06/20 11:00:27;;;;;;;;;;;;;;;41.03;61.52;98420.56;5018242;28;19925;-45
2023/06/20 11:02:55;;;;;;;;;;;;;;;35.97;77.07;98515.72;5016265;28;19921;-47
2023/06/20 11:05:28;;;;;;;;;;;;;;;40.51;63.91;98418.59;5018614;28;19996;-47
2023/06/20 11:08:00;;;;;;;;;;;;;;;39.68;63.02;98435.03;5017361;28;19921;-46
2023/06/20 11:10:27;;;;;;;;;;;;;;;40.99;65.37;98424.91;5019124;28;19929;-48
2023/06/20 11:12:52;;;;;;;;;;;;;;;41.87;56.51;98397.16;5020141;28;20405;-46
2023/06/20 11:15:26;;;;;;;;;;;;;;;42.06;54.82;98397.50;5020251;28;19917;-46
2023/06/20 11:17:52;;;;;;;;;;;;;;;41.37;57.00;98422.94;5018869;28;19920;-45
2023/06/20 11:20:18;;;;;;;;;;;;;;;41.52;55.73;98409.47;5020101;28;19913;-46
2023/06/20 11:22:44;;;;;;;;;;;;;;;41.02;57.24;98418.97;5020616;28;20282;-46
2023/06/20 11:25:09;;;;;;;;;;;;;;;42.02;53.50;98404.50;5019377;28;19984;-45
2023/06/20 11:27:36;;;;;;;;;;;;;;;41.80;55.41;98404.72;5019652;28;19917;-45
2023/06/20 11:30:01;;;;;;;;;;;;;;;43.11;49.66;98379.78;5020210;28;19965;-46
2023/06/20 11:32:26;;;;;;;;;;;;;;;42.37;49.10;98387.44;5019987;28;20353;-45
2023/06/20 11:34:54;;;;;;;;;;;;;;;41.51;51.78;98397.06;5018405;28;19921;-47
2023/06/20 11:37:22;;;;;;;;;;;;;;;43.29;52.05;98401.94;5017705;28;19925;-46
2023/06/20 11:39:48;;;;;;;;;;;;;;;40.59;53.69;98415.44;5016471;28;19999;-46
2023/06/20 11:42:16;;;;;;;;;;;;;;;40.76;57.91;98416.13;5018107;28;20322;-47
2023/06/20 11:44:41;;;;;;;;;;;;;;;41.56;56.34;98404.41;5018002;28;19924;-46
2023/06/20 11:47:07;;;;;;;;;;;;;;;42.05;52.36;98392.34;5018730;28;19920;-46
2023/06/20 11:49:33;;;;;;;;;;;;;;;40.56;54.58;98408.66;5018892;28;19921;-45
2023/06/20 11:51:58;;;;;;;;;;;;;;;43.18;49.70;98365.94;5018152;28;19921;-45
2023/06/20 11:54:24;;;;;;;;;;;;;;;38.61;57.70;98440.53;5018423;28;19925;-46
2023/06/20 11:56:53;;;;;;;;;;;;;;;38.69;61.52;98417.78;5017659;28;19920;-45
2023/06/20 11:59:22;;;;;;;;;;;;;;;40.25;59.45;98404.88;5017813;28;19921;-46
2023/06/20 12:01:47;;;;;;;;;;;;;;;42.33;56.09;98382.84;5020189;28;19963;-45
2023/06/20 12:04:14;;;;;;;;;;;;;;;43.43;49.32;98362.31;5019096;28;19968;-46
2023/06/20 12:06:41;;;;;;;;;;;;;;;43.13;52.75;98380.28;5018074;28;20396;-46
2023/06/20 12:09:08;;;;;;;;;;;;;;;42.38;51.24;98372.00;5019527;28;19952;-48
2023/06/20 12:11:33;;;;;;;;;;;;;;;39.92;57.18;98411.34;5018462;28;19952;-48
2023/06/20 12:13:58;;;;;;;;;;;;;;;39.07;59.62;98414.34;5018581;28;19960;-48
2023/06/20 12:16:24;;;;;;;;;;;;;;;39.80;56.80;98403.34;5018607;28;20370;-47
2023/06/20 12:18:51;;;;;;;;;;;;;;;40.61;50.20;98364.69;5019648;28;19917;-46
2023/06/20 12:21:16;;;;;;;;;;;;;;;41.65;51.68;98367.66;5017174;28;20928;-46
2023/06/20 12:23:41;;;;;;;;;;;;;;;43.79;47.47;98353.94;5018825;28;19921;-46
2023/06/20 12:26:07;;;;;;;;;;;;;;;42.87;52.85;98382.28;5019292;28;19994;-49
2023/06/20 12:28:32;;;;;;;;;;;;;;;42.24;49.07;98371.75;5019624;28;19919;-47
2023/06/20 12:30:59;;;;;;;;;;;;;;;43.36;48.41;98362.59;5023107;28;19921;-46
2023/06/20 12:33:24;;;;;;;;;;;;;;;44.11;46.09;98348.00;5019604;28;19936;-46
2023/06/20 12:35:50;;;;;;;;;;;;;;;45.39;45.32;98354.00;5022380;28;19921;-46